Impacts METAR Board
IDs:

KBWI - Baltimore-Washington, MD, US

Updated at: 1000 UTC 09 Jul 2020
Potential Impact None Slight Moderate High
Time 08/22Z 08/23Z 09/00Z 09/01Z 09/02Z 09/03Z 09/04Z 09/05Z 09/06Z 09/07Z 09/08Z 09/09Z 09/10Z
Temp88 87 85 83 81 79 78 78 76 74 74 72 74
Dewpt65 64 68 69 68 69 69 70 70 70 70 69 70
Altim29.92 29.92 29.93 29.94 29.95 29.95 29.94 29.94 29.95 29.95 29.94 29.94 29.96
VIS10 10 10 10 10 10 10 10 10 10 10 10 10
CIG-- -- -- -- -- -- -- -- -- -- -- -- 8
CoverSCTSCTSCTFEWSCTSCTFEWFEWFEWSCTFEWFEWBKN
FltCatVFRVFRVFRVFRVFRVFRVFRVFRVFRVFRVFRVFRIFR
WX--------------------------
WDir160170160018018018000003100
WSpd7 5 5 0 3 4 3 0 0 0 0 4 0
WGst-- -- -- -- -- -- -- -- -- -- -- -- --
Raw hourly METARs
KBWI 082154Z 16007KT 10SM FEW055 FEW160 SCT250 31/18 A2992 RMK AO2 SLP132 T03110183
KBWI 082254Z 17005KT 10SM FEW055 FEW160 SCT250 31/18 A2992 RMK AO2 SLP132 T03060178
KBWI 082354Z 16005KT 10SM FEW055 FEW160 SCT250 29/20 A2993 RMK AO2 SLP132 TCU DSNT SE T02940200 10322 20294 53000
KBWI 090054Z 00000KT 10SM FEW160 FEW250 28/21 A2994 RMK AO2 SLP138 T02830206
KBWI 090154Z 18003KT 10SM FEW160 SCT250 27/20 A2995 RMK AO2 SLP142 T02720200
KBWI 090254Z 18004KT 10SM FEW160 SCT250 26/21 A2995 RMK AO2 SLP140 T02610206 50007
KBWI 090354Z 18003KT 10SM FEW160 FEW250 26/21 A2994 RMK AO2 SLP136 T02560206
KBWI 090454Z 00000KT 10SM FEW160 FEW250 26/21 A2994 RMK AO2 SLP136 T02560211 403220239
KBWI 090554Z 00000KT 10SM FEW025 FEW250 24/21 A2995 RMK AO2 SLP140 T02440211 10294 20239 53000
KBWI 090654Z 00000KT 10SM FEW022 FEW160 SCT250 23/21 A2995 RMK AO2 SLP142 T02330211
KBWI 090754Z 00000KT 10SM FEW022 FEW250 23/21 A2994 RMK AO2 SLP136 T02330211
KBWI 090854Z 31004KT 10SM FEW250 22/21 A2994 RMK AO2 SLP138 T02220206 57003
KBWI 090954Z 00000KT 10SM BKN008 23/21 A2996 RMK AO2 SLP143 T02330211



Page loaded:  10:47 UTC  |   03:47 AM Pacific  |   04:47 AM Mountain  |   05:47 AM Central  |   06:47 AM Eastern

 

ADVISORIES

FORECASTS

FORECASTS

OBSERVATIONS

USER TOOLS

ABOUT US